Apostolos A — 9HKR6 — position and weather

sailwx.info

Track history (hours):
 
Tides and Currents Weather Stations Pressure Air Temp Water Temp Dewpoint Dewpoint Depression Visibility Wind Speed Wind Dir Waves Ship Positions

Apostolos A

Last reported at 2014-Dec-06 22:33 UTC. Time now 2014-Dec-19 04:38 UTC.
Position N 44°37' E 037°48'.
Warning: this ship's position is 12 days out of date.

Length 182 m; draft 11.8 m.

Type: Tanker. MMSI: 248594000.

Date/timePositionNaut miles runAvg speedWind from/ knotsBaromVisibWave heightAir tempDewpointWater temp
2014-Dec-06 22:33N 44°37' E 037°48'6 6.5
2014-Dec-06 21:33N 44°44' E 037°48'0 0.5
2014-Dec-06 20:33N 44°44' E 037°47'0 0.0
2014-Dec-06 19:33N 44°44' E 037°47'0 0.0
2014-Dec-06 18:33N 44°44' E 037°47'0 0.0
2014-Dec-06 17:33N 44°44' E 037°47'0 0.0
2014-Dec-06 16:18N 44°44' E 037°47'0 0.0
2014-Dec-06 15:33N 44°44' E 037°47'0 0.0
2014-Dec-06 13:33N 44°44' E 037°47'0 0.0
2014-Dec-06 12:33N 44°44' E 037°47'0 0.0
2014-Dec-06 11:33N 44°44' E 037°47'0 0.0
2014-Dec-06 10:33N 44°44' E 037°47'0 0.0
2014-Dec-06 09:33N 44°44' E 037°47'0 0.0
2014-Dec-06 08:33N 44°44' E 037°47'0 0.0
2014-Dec-06 07:30N 44°44' E 037°47'0 0.0
2014-Dec-06 06:33N 44°44' E 037°47'0 0.0
2014-Dec-06 05:33N 44°44' E 037°47'0 0.0
2014-Dec-06 04:33N 44°44' E 037°47'0 0.0
2014-Dec-06 03:33N 44°44' E 037°47'0 0.0
2014-Dec-06 02:24N 44°44' E 037°47'0 0.0
2014-Dec-06 01:33N 44°44' E 037°47'0 0.0
2014-Dec-06 00:33N 44°44' E 037°47'0 0.0
2014-Dec-05 23:27N 44°44' E 037°47'0 0.0
2014-Dec-05 22:33N 44°44' E 037°47'0 0.0
2014-Dec-05 21:33N 44°44' E 037°47'0 0.0
2014-Dec-05 19:30N 44°44' E 037°47'0 0.0
2014-Dec-05 18:30N 44°44' E 037°47'0 0.0
2014-Dec-05 17:33N 44°44' E 037°47'0 0.0
2014-Dec-05 16:33N 44°44' E 037°47'0 0.0
2014-Dec-05 15:30N 44°44' E 037°47'0 0.0
2014-Dec-05 14:33N 44°44' E 037°47'4 3.8
2014-Dec-05 13:33N 44°41' E 037°50'6 6.1
2014-Dec-05 12:32N 44°35' E 037°52'5 0.2
2014-Dec-04 08:14N 44°30' E 037°49'4 1.4
2014-Dec-04 05:20N 44°29' E 037°55'2 0.1
2014-Dec-03 11:24N 44°30' E 037°53'1 1.5
2014-Dec-03 10:27N 44°30' E 037°54'2 1.6
2014-Dec-03 09:24N 44°29' E 037°56'2 1.8
2014-Dec-03 08:33N 44°28' E 037°58'  
Track history (hours):
 
Tides and Currents Weather Stations Pressure Air Temp Water Temp Dewpoint Dewpoint Depression Visibility Wind Speed Wind Dir Waves Ship Positions

Apostolos A

Last reported at 2014-Dec-06 22:33 UTC. Time now 2014-Dec-19 04:38 UTC.
Position N 44°37' E 037°48'.
Warning: this ship's position is 12 days out of date.

Length 182 m; draft 11.8 m.

Type: Tanker. MMSI: 248594000.

Date/timePositionNaut miles runAvg speedWind from/ knotsBaromVisibWave heightAir tempDewpointWater temp
2014-Dec-06 22:33N 44°37' E 037°48'6 6.5
2014-Dec-06 21:33N 44°44' E 037°48'0 0.5
2014-Dec-06 20:33N 44°44' E 037°47'0 0.0
2014-Dec-06 19:33N 44°44' E 037°47'0 0.0
2014-Dec-06 18:33N 44°44' E 037°47'0 0.0
2014-Dec-06 17:33N 44°44' E 037°47'0 0.0
2014-Dec-06 16:18N 44°44' E 037°47'0 0.0
2014-Dec-06 15:33N 44°44' E 037°47'0 0.0
2014-Dec-06 13:33N 44°44' E 037°47'0 0.0
2014-Dec-06 12:33N 44°44' E 037°47'0 0.0
2014-Dec-06 11:33N 44°44' E 037°47'0 0.0
2014-Dec-06 10:33N 44°44' E 037°47'0 0.0
2014-Dec-06 09:33N 44°44' E 037°47'0 0.0
2014-Dec-06 08:33N 44°44' E 037°47'0 0.0
2014-Dec-06 07:30N 44°44' E 037°47'0 0.0
2014-Dec-06 06:33N 44°44' E 037°47'0 0.0
2014-Dec-06 05:33N 44°44' E 037°47'0 0.0
2014-Dec-06 04:33N 44°44' E 037°47'0 0.0
2014-Dec-06 03:33N 44°44' E 037°47'0 0.0
2014-Dec-06 02:24N 44°44' E 037°47'0 0.0
2014-Dec-06 01:33N 44°44' E 037°47'0 0.0
2014-Dec-06 00:33N 44°44' E 037°47'0 0.0
2014-Dec-05 23:27N 44°44' E 037°47'0 0.0
2014-Dec-05 22:33N 44°44' E 037°47'0 0.0
2014-Dec-05 21:33N 44°44' E 037°47'0 0.0
2014-Dec-05 19:30N 44°44' E 037°47'0 0.0
2014-Dec-05 18:30N 44°44' E 037°47'0 0.0
2014-Dec-05 17:33N 44°44' E 037°47'0 0.0
2014-Dec-05 16:33N 44°44' E 037°47'0 0.0
2014-Dec-05 15:30N 44°44' E 037°47'0 0.0
2014-Dec-05 14:33N 44°44' E 037°47'4 3.8
2014-Dec-05 13:33N 44°41' E 037°50'6 6.1
2014-Dec-05 12:32N 44°35' E 037°52'5 0.2
2014-Dec-04 08:14N 44°30' E 037°49'4 1.4
2014-Dec-04 05:20N 44°29' E 037°55'2 0.1
2014-Dec-03 11:24N 44°30' E 037°53'1 1.5
2014-Dec-03 10:27N 44°30' E 037°54'2 1.6
2014-Dec-03 09:24N 44°29' E 037°56'2 1.8
2014-Dec-03 08:33N 44°28' E 037°58'  

Dump ship's entire track history